sensor_id;sensor_type;location;lat;lon;timestamp;pressure;altitude;pressure_sealevel;temperature;humidity
5053;BME280;2545;50.892;5.740;2023-03-22T00:00:50;56302.28;;;-142.21;91.87
5053;BME280;2545;50.892;5.740;2023-03-22T00:03:15;56284.66;;;-142.21;92.30
5053;BME280;2545;50.892;5.740;2023-03-22T00:05:41;56306.22;;;-142.21;93.43
5053;BME280;2545;50.892;5.740;2023-03-22T00:08:06;56259.16;;;-142.21;93.01
5053;BME280;2545;50.892;5.740;2023-03-22T00:10:33;56288.56;;;-142.21;93.39
5053;BME280;2545;50.892;5.740;2023-03-22T00:12:59;56265.03;;;-142.21;93.14
5053;BME280;2545;50.892;5.740;2023-03-22T00:15:25;56327.78;;;-142.21;93.92
5053;BME280;2545;50.892;5.740;2023-03-22T00:17:53;56302.28;;;-142.21;93.73
5053;BME280;2545;50.892;5.740;2023-03-22T00:20:19;56292.50;;;-142.21;95.27
5053;BME280;2545;50.892;5.740;2023-03-22T00:22:48;56288.56;;;-142.21;96.49
5053;BME280;2545;50.892;5.740;2023-03-22T00:25:13;56321.91;;;-142.21;97.99
5053;BME280;2545;50.892;5.740;2023-03-22T00:27:38;56296.41;;;-142.21;99.52
5053;BME280;2545;50.892;5.740;2023-03-22T00:30:04;56290.53;;;-142.21;100.00
5053;BME280;2545;50.892;5.740;2023-03-22T00:32:33;56276.81;;;-142.21;100.00
5053;BME280;2545;50.892;5.740;2023-03-22T00:34:59;56294.47;;;-142.21;100.00
5053;BME280;2545;50.892;5.740;2023-03-22T00:37:26;56306.22;;;-142.21;100.00
5053;BME280;2545;50.892;5.740;2023-03-22T00:39:51;56314.06;;;-142.21;100.00
5053;BME280;2545;50.892;5.740;2023-03-22T00:42:17;56312.09;;;-142.21;99.95
5053;BME280;2545;50.892;5.740;2023-03-22T00:44:42;56282.69;;;-142.21;99.75
5053;BME280;2545;50.892;5.740;2023-03-22T00:47:07;56314.06;;;-142.21;99.99
5053;BME280;2545;50.892;5.740;2023-03-22T00:49:33;56302.28;;;-142.21;99.47
5053;BME280;2545;50.892;5.740;2023-03-22T00:51:59;56304.25;;;-142.21;99.02
5053;BME280;2545;50.892;5.740;2023-03-22T00:54:24;56312.09;;;-142.21;98.78
5053;BME280;2545;50.892;5.740;2023-03-22T00:56:50;56282.69;;;-142.21;98.58
5053;BME280;2545;50.892;5.740;2023-03-22T00:59:15;56294.47;;;-142.21;98.59
5053;BME280;2545;50.892;5.740;2023-03-22T01:01:41;56310.13;;;-142.21;99.35
5053;BME280;2545;50.892;5.740;2023-03-22T01:04:07;56274.84;;;-142.21;100.00
5053;BME280;2545;50.892;5.740;2023-03-22T01:06:34;56294.47;;;-142.21;99.71
5053;BME280;2545;50.892;5.740;2023-03-22T01:09:00;56308.19;;;-142.21;100.00
5053;BME280;2545;50.892;5.740;2023-03-22T01:11:26;56296.41;;;-142.21;100.00
5053;BME280;2545;50.892;5.740;2023-03-22T01:13:52;56302.28;;;-142.21;100.00
5053;BME280;2545;50.892;5.740;2023-03-22T01:16:18;56300.34;;;-142.21;100.00
5053;BME280;2545;50.892;5.740;2023-03-22T01:18:44;56286.63;;;-142.21;100.00
5053;BME280;2545;50.892;5.740;2023-03-22T01:21:10;56304.25;;;-142.21;100.00
5053;BME280;2545;50.892;5.740;2023-03-22T01:23:36;56302.28;;;-142.21;100.00
5053;BME280;2545;50.892;5.740;2023-03-22T01:26:01;56296.41;;;-142.21;100.00
5053;BME280;2545;50.892;5.740;2023-03-22T01:28:27;56327.78;;;-142.21;100.00
5053;BME280;2545;50.892;5.740;2023-03-22T01:30:53;56296.41;;;-142.21;100.00
5053;BME280;2545;50.892;5.740;2023-03-22T01:33:19;56310.13;;;-142.21;100.00
5053;BME280;2545;50.892;5.740;2023-03-22T01:35:44;56317.97;;;-142.21;100.00
5053;BME280;2545;50.892;5.740;2023-03-22T01:38:09;56268.97;;;-142.21;100.00
5053;BME280;2545;50.892;5.740;2023-03-22T01:40:35;56341.53;;;-142.21;100.00
5053;BME280;2545;50.892;5.740;2023-03-22T01:43:00;56278.78;;;-142.21;100.00
5053;BME280;2545;50.892;5.740;2023-03-22T01:45:30;56316.03;;;-142.21;100.00
5053;BME280;2545;50.892;5.740;2023-03-22T01:47:59;56316.03;;;-142.21;100.00
5053;BME280;2545;50.892;5.740;2023-03-22T01:50:26;56282.69;;;-142.21;100.00
5053;BME280;2545;50.892;5.740;2023-03-22T01:52:54;56312.09;;;-142.21;100.00
5053;BME280;2545;50.892;5.740;2023-03-22T01:55:21;56259.16;;;-142.21;100.00
5053;BME280;2545;50.892;5.740;2023-03-22T01:57:48;56316.03;;;-142.21;100.00
5053;BME280;2545;50.892;5.740;2023-03-22T02:00:15;56296.41;;;-142.21;100.00
5053;BME280;2545;50.892;5.740;2023-03-22T02:02:43;56345.44;;;-142.21;100.00
5053;BME280;2545;50.892;5.740;2023-03-22T02:05:10;56288.56;;;-142.21;100.00
5053;BME280;2545;50.892;5.740;2023-03-22T02:07:38;56298.38;;;-142.21;100.00
5053;BME280;2545;50.892;5.740;2023-03-22T02:10:16;56321.91;;;-142.21;100.00
5053;BME280;2545;50.892;5.740;2023-03-22T02:12:50;56294.47;;;-142.21;100.00
5053;BME280;2545;50.892;5.740;2023-03-22T02:15:39;56339.56;;;-142.21;100.00
5053;BME280;2545;50.892;5.740;2023-03-22T02:18:19;56292.50;;;-142.21;100.00
5053;BME280;2545;50.892;5.740;2023-03-22T02:23:52;56308.19;;;-142.21;100.00
5053;BME280;2545;50.892;5.740;2023-03-22T02:26:49;56280.72;;;-142.21;100.00
5053;BME280;2545;50.892;5.740;2023-03-22T02:29:27;56329.75;;;-142.21;100.00
5053;BME280;2545;50.892;5.740;2023-03-22T02:37:33;56310.13;;;-142.21;100.00
5053;BME280;2545;50.892;5.740;2023-03-22T02:40:16;56251.31;;;-142.21;100.00
5053;BME280;2545;50.892;5.740;2023-03-22T02:48:11;56251.31;;;-142.21;100.00
5053;BME280;2545;50.892;5.740;2023-03-22T02:53:16;56329.75;;;-142.21;100.00
5053;BME280;2545;50.892;5.740;2023-03-22T02:58:23;56351.31;;;-142.21;100.00
5053;BME280;2545;50.892;5.740;2023-03-22T03:00:54;56312.09;;;-142.21;100.00
5053;BME280;2545;50.892;5.740;2023-03-22T03:03:22;56323.88;;;-142.21;100.00
5053;BME280;2545;50.892;5.740;2023-03-22T03:06:04;56319.94;;;-142.21;100.00
5053;BME280;2545;50.892;5.740;2023-03-22T03:08:33;56302.28;;;-142.21;100.00
5053;BME280;2545;50.892;5.740;2023-03-22T03:11:00;56302.28;;;-142.21;100.00
5053;BME280;2545;50.892;5.740;2023-03-22T03:13:25;56270.91;;;-142.21;100.00
5053;BME280;2545;50.892;5.740;2023-03-22T03:15:53;56304.25;;;-142.21;100.00
5053;BME280;2545;50.892;5.740;2023-03-22T03:24:11;56267.00;;;-142.21;100.00
5053;BME280;2545;50.892;5.740;2023-03-22T03:26:51;56272.88;;;-142.21;100.00
5053;BME280;2545;50.892;5.740;2023-03-22T03:29:38;56282.69;;;-142.21;100.00
5053;BME280;2545;50.892;5.740;2023-03-22T03:32:12;56270.91;;;-142.21;100.00
5053;BME280;2545;50.892;5.740;2023-03-22T03:34:46;56268.97;;;-142.21;100.00
5053;BME280;2545;50.892;5.740;2023-03-22T03:37:40;56270.91;;;-142.21;100.00
5053;BME280;2545;50.892;5.740;2023-03-22T03:40:10;56290.53;;;-142.21;100.00
5053;BME280;2545;50.892;5.740;2023-03-22T03:42:40;56259.16;;;-142.21;100.00
5053;BME280;2545;50.892;5.740;2023-03-22T03:45:08;56306.22;;;-142.21;100.00
5053;BME280;2545;50.892;5.740;2023-03-22T03:47:34;56308.19;;;-142.21;100.00
5053;BME280;2545;50.892;5.740;2023-03-22T03:50:02;56317.97;;;-142.21;100.00
5053;BME280;2545;50.892;5.740;2023-03-22T03:52:27;56276.81;;;-142.21;100.00
5053;BME280;2545;50.892;5.740;2023-03-22T03:54:53;56333.69;;;-142.21;100.00
5053;BME280;2545;50.892;5.740;2023-03-22T03:57:19;56339.56;;;-142.21;100.00
5053;BME280;2545;50.892;5.740;2023-03-22T03:59:44;56314.06;;;-142.21;100.00
5053;BME280;2545;50.892;5.740;2023-03-22T04:02:10;56278.78;;;-142.21;100.00
5053;BME280;2545;50.892;5.740;2023-03-22T04:04:36;56255.22;;;-142.21;100.00
5053;BME280;2545;50.892;5.740;2023-03-22T04:07:03;56296.41;;;-142.21;100.00
5053;BME280;2545;50.892;5.740;2023-03-22T04:09:32;56308.19;;;-142.21;100.00
5053;BME280;2545;50.892;5.740;2023-03-22T04:11:58;56314.06;;;-142.21;100.00
5053;BME280;2545;50.892;5.740;2023-03-22T04:14:24;56316.03;;;-142.21;100.00
5053;BME280;2545;50.892;5.740;2023-03-22T04:16:50;56319.94;;;-142.21;100.00
5053;BME280;2545;50.892;5.740;2023-03-22T04:19:16;56259.16;;;-142.21;100.00
5053;BME280;2545;50.892;5.740;2023-03-22T04:21:41;56274.84;;;-142.21;100.00
5053;BME280;2545;50.892;5.740;2023-03-22T04:24:07;56296.41;;;-142.21;100.00
5053;BME280;2545;50.892;5.740;2023-03-22T04:26:33;56314.06;;;-142.21;100.00
5053;BME280;2545;50.892;5.740;2023-03-22T04:28:58;56310.13;;;-142.21;100.00
5053;BME280;2545;50.892;5.740;2023-03-22T04:31:24;56290.53;;;-142.21;100.00
5053;BME280;2545;50.892;5.740;2023-03-22T04:33:50;56290.53;;;-142.21;100.00
5053;BME280;2545;50.892;5.740;2023-03-22T04:36:19;56284.66;;;-142.21;100.00
5053;BME280;2545;50.892;5.740;2023-03-22T04:38:45;56290.53;;;-142.21;100.00
5053;BME280;2545;50.892;5.740;2023-03-22T04:41:10;56339.56;;;-142.21;100.00
5053;BME280;2545;50.892;5.740;2023-03-22T04:43:35;56282.69;;;-142.21;100.00
5053;BME280;2545;50.892;5.740;2023-03-22T04:46:06;56316.03;;;-142.21;100.00
5053;BME280;2545;50.892;5.740;2023-03-22T04:48:35;56300.34;;;-142.21;100.00
5053;BME280;2545;50.892;5.740;2023-03-22T04:51:00;56359.16;;;-142.21;100.00
5053;BME280;2545;50.892;5.740;2023-03-22T04:53:28;56325.84;;;-142.21;100.00
5053;BME280;2545;50.892;5.740;2023-03-22T04:55:54;56325.84;;;-142.21;100.00
5053;BME280;2545;50.892;5.740;2023-03-22T04:58:23;56290.53;;;-142.21;100.00
5053;BME280;2545;50.892;5.740;2023-03-22T05:00:50;56327.78;;;-142.21;100.00
5053;BME280;2545;50.892;5.740;2023-03-22T05:03:17;56312.09;;;-142.21;100.00
5053;BME280;2545;50.892;5.740;2023-03-22T05:05:51;56284.66;;;-142.21;100.00
5053;BME280;2545;50.892;5.740;2023-03-22T05:08:18;56317.97;;;-142.21;99.78
5053;BME280;2545;50.892;5.740;2023-03-22T05:10:44;56284.66;;;-142.21;99.35
5053;BME280;2545;50.892;5.740;2023-03-22T05:13:10;56304.25;;;-142.21;99.33
5053;BME280;2545;50.892;5.740;2023-03-22T05:15:37;56310.13;;;-142.21;98.23
5053;BME280;2545;50.892;5.740;2023-03-22T05:18:03;56270.91;;;-142.21;97.87
5053;BME280;2545;50.892;5.740;2023-03-22T05:20:29;56316.03;;;-142.21;98.03
5053;BME280;2545;50.892;5.740;2023-03-22T05:22:54;56290.53;;;-142.21;98.42
5053;BME280;2545;50.892;5.740;2023-03-22T05:25:21;56321.91;;;-142.21;98.62
5053;BME280;2545;50.892;5.740;2023-03-22T05:27:47;56296.41;;;-142.21;98.61
5053;BME280;2545;50.892;5.740;2023-03-22T05:30:14;56296.41;;;-142.21;99.33
5053;BME280;2545;50.892;5.740;2023-03-22T05:32:40;56327.78;;;-142.21;99.01
5053;BME280;2545;50.892;5.740;2023-03-22T05:35:08;56316.03;;;-142.21;99.19
5053;BME280;2545;50.892;5.740;2023-03-22T05:37:33;56308.19;;;-142.21;99.28
5053;BME280;2545;50.892;5.740;2023-03-22T05:39:59;56265.03;;;-142.21;99.56
5053;BME280;2545;50.892;5.740;2023-03-22T05:42:24;56316.03;;;-142.21;100.00
5053;BME280;2545;50.892;5.740;2023-03-22T05:44:50;56300.34;;;-142.21;99.41
5053;BME280;2545;50.892;5.740;2023-03-22T05:47:15;56290.53;;;-142.21;98.18
5053;BME280;2545;50.892;5.740;2023-03-22T05:49:40;56300.34;;;-142.21;97.90
5053;BME280;2545;50.892;5.740;2023-03-22T05:52:06;56298.38;;;-142.21;98.09
5053;BME280;2545;50.892;5.740;2023-03-22T05:54:31;56302.28;;;-142.21;97.99
5053;BME280;2545;50.892;5.740;2023-03-22T05:56:56;56317.97;;;-142.21;96.45
5053;BME280;2545;50.892;5.740;2023-03-22T05:59:22;56300.34;;;-142.21;96.02
5053;BME280;2545;50.892;5.740;2023-03-22T06:01:47;56312.09;;;-142.21;96.55
5053;BME280;2545;50.892;5.740;2023-03-22T06:04:12;56284.66;;;-142.21;96.17
5053;BME280;2545;50.892;5.740;2023-03-22T06:06:38;56347.41;;;-142.21;95.73
5053;BME280;2545;50.892;5.740;2023-03-22T06:09:03;56280.72;;;-142.21;95.28
5053;BME280;2545;50.892;5.740;2023-03-22T06:11:29;56288.56;;;-142.21;94.57
5053;BME280;2545;50.892;5.740;2023-03-22T06:13:58;56290.53;;;-142.21;94.92
5053;BME280;2545;50.892;5.740;2023-03-22T06:16:23;56312.09;;;-142.21;94.30
5053;BME280;2545;50.892;5.740;2023-03-22T06:18:49;56308.19;;;-142.21;93.37
5053;BME280;2545;50.892;5.740;2023-03-22T06:21:14;56278.78;;;-142.21;93.47
5053;BME280;2545;50.892;5.740;2023-03-22T06:23:39;56288.56;;;-142.21;92.96
5053;BME280;2545;50.892;5.740;2023-03-22T06:26:05;56276.81;;;-142.21;93.05
5053;BME280;2545;50.892;5.740;2023-03-22T06:28:31;56302.28;;;-142.21;91.61
5053;BME280;2545;50.892;5.740;2023-03-22T06:30:56;56316.03;;;-142.21;90.97
5053;BME280;2545;50.892;5.740;2023-03-22T06:33:21;56261.13;;;-142.21;90.15
5053;BME280;2545;50.892;5.740;2023-03-22T06:35:47;56296.41;;;-142.21;90.03
5053;BME280;2545;50.892;5.740;2023-03-22T06:38:12;56268.97;;;-142.21;88.71
5053;BME280;2545;50.892;5.740;2023-03-22T06:40:37;56263.06;;;-142.21;88.25
5053;BME280;2545;50.892;5.740;2023-03-22T06:43:03;56290.53;;;-142.21;88.54
5053;BME280;2545;50.892;5.740;2023-03-22T06:45:28;56300.34;;;-142.21;87.66
5053;BME280;2545;50.892;5.740;2023-03-22T06:47:57;56290.53;;;-142.21;88.11
5053;BME280;2545;50.892;5.740;2023-03-22T06:50:22;56296.41;;;-142.21;87.29
5053;BME280;2545;50.892;5.740;2023-03-22T06:52:48;56304.25;;;-142.21;86.79
5053;BME280;2545;50.892;5.740;2023-03-22T06:55:13;56298.38;;;-142.21;86.95
5053;BME280;2545;50.892;5.740;2023-03-22T06:57:38;56274.84;;;-142.21;86.51
5053;BME280;2545;50.892;5.740;2023-03-22T07:00:04;56317.97;;;-142.21;86.04
5053;BME280;2545;50.892;5.740;2023-03-22T07:02:30;56270.91;;;-142.21;85.68
5053;BME280;2545;50.892;5.740;2023-03-22T07:04:55;56278.78;;;-142.21;85.44
5053;BME280;2545;50.892;5.740;2023-03-22T07:07:20;56280.72;;;-142.21;85.35
5053;BME280;2545;50.892;5.740;2023-03-22T07:09:46;56294.47;;;-142.21;85.49
5053;BME280;2545;50.892;5.740;2023-03-22T07:12:11;56268.97;;;-142.21;85.26
5053;BME280;2545;50.892;5.740;2023-03-22T07:14:36;56300.34;;;-142.21;85.51
5053;BME280;2545;50.892;5.740;2023-03-22T07:17:02;56272.88;;;-142.21;84.33
5053;BME280;2545;50.892;5.740;2023-03-22T07:19:27;56267.00;;;-142.21;83.90
5053;BME280;2545;50.892;5.740;2023-03-22T07:21:53;56261.13;;;-142.21;84.25
5053;BME280;2545;50.892;5.740;2023-03-22T07:24:18;56288.56;;;-142.21;84.45
5053;BME280;2545;50.892;5.740;2023-03-22T07:26:43;56286.63;;;-142.21;84.18
5053;BME280;2545;50.892;5.740;2023-03-22T07:29:09;56272.88;;;-142.21;83.02
5053;BME280;2545;50.892;5.740;2023-03-22T07:31:34;56263.06;;;-142.21;82.93
5053;BME280;2545;50.892;5.740;2023-03-22T07:34:04;56347.41;;;-142.21;82.29
5053;BME280;2545;50.892;5.740;2023-03-22T07:36:30;56284.66;;;-142.21;81.60
5053;BME280;2545;50.892;5.740;2023-03-22T07:38:56;56290.53;;;-142.21;81.22
5053;BME280;2545;50.892;5.740;2023-03-22T07:41:21;56319.94;;;-142.21;80.69
5053;BME280;2545;50.892;5.740;2023-03-22T07:43:48;56288.56;;;-142.21;80.71
5053;BME280;2545;50.892;5.740;2023-03-22T07:46:13;56237.59;;;-142.21;79.92
5053;BME280;2545;50.892;5.740;2023-03-22T07:48:39;56280.72;;;-142.21;79.61
5053;BME280;2545;50.892;5.740;2023-03-22T07:51:05;56296.41;;;-142.21;78.36
5053;BME280;2545;50.892;5.740;2023-03-22T07:53:30;56319.94;;;-142.21;78.08
5053;BME280;2545;50.892;5.740;2023-03-22T07:55:55;56263.06;;;-142.21;78.59
5053;BME280;2545;50.892;5.740;2023-03-22T07:58:21;56298.38;;;-142.21;78.14
5053;BME280;2545;50.892;5.740;2023-03-22T08:00:46;56292.50;;;-142.21;77.79
5053;BME280;2545;50.892;5.740;2023-03-22T08:03:13;56310.13;;;-142.21;76.67
5053;BME280;2545;50.892;5.740;2023-03-22T08:05:40;56333.69;;;-142.21;75.69
5053;BME280;2545;50.892;5.740;2023-03-22T08:08:06;56272.88;;;-142.21;74.07
5053;BME280;2545;50.892;5.740;2023-03-22T08:10:31;56312.09;;;-142.21;74.81
5053;BME280;2545;50.892;5.740;2023-03-22T08:12:58;56312.09;;;-142.21;75.21
5053;BME280;2545;50.892;5.740;2023-03-22T08:15:23;56296.41;;;-142.21;73.90
5053;BME280;2545;50.892;5.740;2023-03-22T08:17:48;56300.34;;;-142.21;71.99
5053;BME280;2545;50.892;5.740;2023-03-22T08:20:14;56296.41;;;-142.21;72.03
5053;BME280;2545;50.892;5.740;2023-03-22T08:22:42;56298.38;;;-142.21;71.08
5053;BME280;2545;50.892;5.740;2023-03-22T08:25:08;56300.34;;;-142.21;70.83
5053;BME280;2545;50.892;5.740;2023-03-22T08:27:34;56290.53;;;-142.21;70.04
5053;BME280;2545;50.892;5.740;2023-03-22T08:29:59;56261.13;;;-142.21;69.84
5053;BME280;2545;50.892;5.740;2023-03-22T08:32:25;56255.22;;;-142.21;69.28
5053;BME280;2545;50.892;5.740;2023-03-22T08:34:50;56294.47;;;-142.21;68.51
5053;BME280;2545;50.892;5.740;2023-03-22T08:37:16;56308.19;;;-142.21;68.19
5053;BME280;2545;50.892;5.740;2023-03-22T08:39:45;56288.56;;;-142.21;68.49
5053;BME280;2545;50.892;5.740;2023-03-22T08:42:10;56292.50;;;-142.21;68.26
5053;BME280;2545;50.892;5.740;2023-03-22T08:44:36;56290.53;;;-142.21;68.25
5053;BME280;2545;50.892;5.740;2023-03-22T08:47:01;56239.56;;;-142.21;67.84
5053;BME280;2545;50.892;5.740;2023-03-22T08:49:27;56282.69;;;-142.21;67.44
5053;BME280;2545;50.892;5.740;2023-03-22T08:51:52;56261.13;;;-142.21;66.36
5053;BME280;2545;50.892;5.740;2023-03-22T08:54:18;56233.66;;;-142.21;66.59
5053;BME280;2545;50.892;5.740;2023-03-22T08:56:43;56265.03;;;-142.21;66.45
5053;BME280;2545;50.892;5.740;2023-03-22T08:59:09;56261.13;;;-142.21;65.88
5053;BME280;2545;50.892;5.740;2023-03-22T09:01:35;56247.38;;;-142.21;64.68
5053;BME280;2545;50.892;5.740;2023-03-22T09:04:01;56255.22;;;-142.21;64.93
5053;BME280;2545;50.892;5.740;2023-03-22T09:06:27;56253.28;;;-142.21;64.29
5053;BME280;2545;50.892;5.740;2023-03-22T09:08:53;56284.66;;;-142.21;64.24
5053;BME280;2545;50.892;5.740;2023-03-22T09:11:19;56300.34;;;-142.21;63.12
5053;BME280;2545;50.892;5.740;2023-03-22T09:13:46;56288.56;;;-142.21;64.19
5053;BME280;2545;50.892;5.740;2023-03-22T09:16:11;56274.84;;;-142.21;63.72
5053;BME280;2545;50.892;5.740;2023-03-22T09:18:37;56284.66;;;-142.21;63.10
5053;BME280;2545;50.892;5.740;2023-03-22T09:21:04;56255.22;;;-142.21;61.61
5053;BME280;2545;50.892;5.740;2023-03-22T09:23:31;56288.56;;;-142.21;59.94
5053;BME280;2545;50.892;5.740;2023-03-22T09:25:59;56280.72;;;-142.21;59.72
5053;BME280;2545;50.892;5.740;2023-03-22T09:28:26;56261.13;;;-142.21;59.26
5053;BME280;2545;50.892;5.740;2023-03-22T09:30:51;56274.84;;;-142.21;59.39
5053;BME280;2545;50.892;5.740;2023-03-22T09:33:17;56253.28;;;-142.21;59.04
5053;BME280;2545;50.892;5.740;2023-03-22T09:35:42;56268.97;;;-142.21;58.44
5053;BME280;2545;50.892;5.740;2023-03-22T09:38:08;56272.88;;;-142.21;59.90
5053;BME280;2545;50.892;5.740;2023-03-22T09:40:36;56263.06;;;-142.21;60.27
5053;BME280;2545;50.892;5.740;2023-03-22T09:43:05;56257.19;;;-142.21;59.88
5053;BME280;2545;50.892;5.740;2023-03-22T09:45:40;56253.28;;;-142.21;59.29
5053;BME280;2545;50.892;5.740;2023-03-22T09:50:46;56259.16;;;-142.21;60.19
5053;BME280;2545;50.892;5.740;2023-03-22T09:53:14;56259.16;;;-142.21;59.10
5053;BME280;2545;50.892;5.740;2023-03-22T09:55:45;56241.50;;;-142.21;59.92
5053;BME280;2545;50.892;5.740;2023-03-22T09:58:42;56265.03;;;-142.21;59.32
5053;BME280;2545;50.892;5.740;2023-03-22T10:01:31;56249.34;;;-142.21;59.68
5053;BME280;2545;50.892;5.740;2023-03-22T10:06:43;56292.50;;;-142.21;57.78
5053;BME280;2545;50.892;5.740;2023-03-22T10:09:21;56267.00;;;-142.21;57.14
5053;BME280;2545;50.892;5.740;2023-03-22T10:12:00;56259.16;;;-142.21;56.44
5053;BME280;2545;50.892;5.740;2023-03-22T10:14:45;56245.44;;;-142.21;56.37
5053;BME280;2545;50.892;5.740;2023-03-22T10:17:17;56268.97;;;-142.21;55.49
5053;BME280;2545;50.892;5.740;2023-03-22T10:20:03;56267.00;;;-142.21;55.52
5053;BME280;2545;50.892;5.740;2023-03-22T10:22:34;56296.41;;;-142.21;56.09
5053;BME280;2545;50.892;5.740;2023-03-22T10:25:01;56261.13;;;-142.21;55.54
5053;BME280;2545;50.892;5.740;2023-03-22T10:27:29;56231.72;;;-142.21;57.82
5053;BME280;2545;50.892;5.740;2023-03-22T10:30:04;56239.56;;;-142.21;58.37
5053;BME280;2545;50.892;5.740;2023-03-22T10:32:42;56243.47;;;-142.21;57.39
5053;BME280;2545;50.892;5.740;2023-03-22T10:35:13;56237.59;;;-142.21;58.46
5053;BME280;2545;50.892;5.740;2023-03-22T10:37:40;56253.28;;;-142.21;57.98
5053;BME280;2545;50.892;5.740;2023-03-22T10:40:15;56265.03;;;-142.21;56.49
5053;BME280;2545;50.892;5.740;2023-03-22T10:42:46;56227.78;;;-142.21;55.68
5053;BME280;2545;50.892;5.740;2023-03-22T10:45:14;56286.63;;;-142.21;56.07
5053;BME280;2545;50.892;5.740;2023-03-22T10:47:48;56263.06;;;-142.21;55.31
5053;BME280;2545;50.892;5.740;2023-03-22T10:50:21;56237.59;;;-142.21;57.09
5053;BME280;2545;50.892;5.740;2023-03-22T10:55:16;56249.34;;;-142.21;56.38
5053;BME280;2545;50.892;5.740;2023-03-22T10:57:48;56245.44;;;-142.21;55.41
5053;BME280;2545;50.892;5.740;2023-03-22T11:00:15;56265.03;;;-142.21;56.11
5053;BME280;2545;50.892;5.740;2023-03-22T11:02:50;56245.44;;;-142.21;56.11
5053;BME280;2545;50.892;5.740;2023-03-22T11:05:20;56274.84;;;-142.21;56.35
5053;BME280;2545;50.892;5.740;2023-03-22T11:07:47;56249.34;;;-142.21;56.71
5053;BME280;2545;50.892;5.740;2023-03-22T11:10:31;56245.44;;;-142.21;57.02
5053;BME280;2545;50.892;5.740;2023-03-22T11:15:33;56249.34;;;-142.21;57.22
5053;BME280;2545;50.892;5.740;2023-03-22T11:18:03;56247.38;;;-142.21;57.26
5053;BME280;2545;50.892;5.740;2023-03-22T11:20:31;56270.91;;;-142.21;58.28
5053;BME280;2545;50.892;5.740;2023-03-22T11:23:00;56278.78;;;-142.21;58.83
5053;BME280;2545;50.892;5.740;2023-03-22T11:25:29;56245.44;;;-142.21;58.69
5053;BME280;2545;50.892;5.740;2023-03-22T11:28:18;56257.19;;;-142.21;58.62
5053;BME280;2545;50.892;5.740;2023-03-22T11:31:05;56212.09;;;-142.21;59.42
5053;BME280;2545;50.892;5.740;2023-03-22T11:33:32;56237.59;;;-142.21;59.06
5053;BME280;2545;50.892;5.740;2023-03-22T11:35:59;56235.63;;;-142.21;59.22
5053;BME280;2545;50.892;5.740;2023-03-22T11:38:39;56276.81;;;-142.21;58.24
5053;BME280;2545;50.892;5.740;2023-03-22T11:41:08;56217.97;;;-142.21;58.43
5053;BME280;2545;50.892;5.740;2023-03-22T11:43:38;56282.69;;;-142.21;58.55
5053;BME280;2545;50.892;5.740;2023-03-22T11:46:06;56284.66;;;-142.21;58.35
5053;BME280;2545;50.892;5.740;2023-03-22T11:48:32;56251.31;;;-142.21;58.74
5053;BME280;2545;50.892;5.740;2023-03-22T11:51:11;56267.00;;;-142.21;58.26
5053;BME280;2545;50.892;5.740;2023-03-22T11:53:42;56278.78;;;-142.21;58.14
5053;BME280;2545;50.892;5.740;2023-03-22T11:56:11;56243.47;;;-142.21;58.14
5053;BME280;2545;50.892;5.740;2023-03-22T11:58:54;56272.88;;;-142.21;57.76
5053;BME280;2545;50.892;5.740;2023-03-22T12:01:39;56272.88;;;-142.21;58.17
5053;BME280;2545;50.892;5.740;2023-03-22T12:04:12;56284.66;;;-142.21;57.48
5053;BME280;2545;50.892;5.740;2023-03-22T12:06:40;56267.00;;;-142.21;57.59
5053;BME280;2545;50.892;5.740;2023-03-22T12:09:16;56263.06;;;-142.21;57.50
5053;BME280;2545;50.892;5.740;2023-03-22T12:11:49;56251.31;;;-142.21;58.11
5053;BME280;2545;50.892;5.740;2023-03-22T12:14:22;56280.72;;;-142.21;58.79
5053;BME280;2545;50.892;5.740;2023-03-22T12:16:52;56257.19;;;-142.21;58.55
5053;BME280;2545;50.892;5.740;2023-03-22T12:21:48;56265.03;;;-142.21;57.64
5053;BME280;2545;50.892;5.740;2023-03-22T12:24:28;56261.13;;;-142.21;57.55
5053;BME280;2545;50.892;5.740;2023-03-22T12:26:59;56231.72;;;-142.21;57.63
5053;BME280;2545;50.892;5.740;2023-03-22T12:29:26;56233.66;;;-142.21;58.39
5053;BME280;2545;50.892;5.740;2023-03-22T12:31:59;56257.19;;;-142.21;58.15
5053;BME280;2545;50.892;5.740;2023-03-22T12:34:42;56225.81;;;-142.21;57.87
5053;BME280;2545;50.892;5.740;2023-03-22T12:37:14;56257.19;;;-142.21;57.43
5053;BME280;2545;50.892;5.740;2023-03-22T12:39:55;56259.16;;;-142.21;57.14
5053;BME280;2545;50.892;5.740;2023-03-22T12:42:40;56245.44;;;-142.21;58.03
5053;BME280;2545;50.892;5.740;2023-03-22T12:45:13;56294.47;;;-142.21;58.21
5053;BME280;2545;50.892;5.740;2023-03-22T12:47:44;56294.47;;;-142.21;59.04
5053;BME280;2545;50.892;5.740;2023-03-22T12:50:17;56243.47;;;-142.21;59.01
5053;BME280;2545;50.892;5.740;2023-03-22T12:52:51;56233.66;;;-142.21;58.26
5053;BME280;2545;50.892;5.740;2023-03-22T12:55:31;56267.00;;;-142.21;58.46
5053;BME280;2545;50.892;5.740;2023-03-22T12:57:58;56237.59;;;-142.21;58.26
5053;BME280;2545;50.892;5.740;2023-03-22T13:00:32;56237.59;;;-142.21;58.53
5053;BME280;2545;50.892;5.740;2023-03-22T13:03:05;56267.00;;;-142.21;58.30
5053;BME280;2545;50.892;5.740;2023-03-22T13:05:33;56237.59;;;-142.21;58.37
5053;BME280;2545;50.892;5.740;2023-03-22T13:07:59;56229.75;;;-142.21;58.51
5053;BME280;2545;50.892;5.740;2023-03-22T13:15:39;56251.31;;;-142.21;58.65
5053;BME280;2545;50.892;5.740;2023-03-22T13:18:22;56239.56;;;-142.21;58.35
5053;BME280;2545;50.892;5.740;2023-03-22T13:21:13;56255.22;;;-142.21;58.94
5053;BME280;2545;50.892;5.740;2023-03-22T13:26:44;56286.63;;;-142.21;58.94
5053;BME280;2545;50.892;5.740;2023-03-22T13:29:33;56239.56;;;-142.21;59.45
5053;BME280;2545;50.892;5.740;2023-03-22T13:32:05;56241.50;;;-142.21;59.83
5053;BME280;2545;50.892;5.740;2023-03-22T13:34:45;56270.91;;;-142.21;60.02
5053;BME280;2545;50.892;5.740;2023-03-22T13:37:34;56241.50;;;-142.21;60.06
5053;BME280;2545;50.892;5.740;2023-03-22T13:40:35;56229.75;;;-142.21;59.63
5053;BME280;2545;50.892;5.740;2023-03-22T13:45:34;56259.16;;;-142.21;60.12
5053;BME280;2545;50.892;5.740;2023-03-22T13:48:30;56261.13;;;-142.21;59.97
5053;BME280;2545;50.892;5.740;2023-03-22T13:51:10;56261.13;;;-142.21;60.81
5053;BME280;2545;50.892;5.740;2023-03-22T13:53:36;56263.06;;;-142.21;60.66
5053;BME280;2545;50.892;5.740;2023-03-22T13:56:04;56237.59;;;-142.21;61.04